Time;durP1;ratioP1;P1;durP2;ratioP2;P2;SDS_P1;SDS_P2;PMS_P1;PMS_P2;Temp;Humidity;BMP_temperature;BMP_pressure;BME280_temperature;BME280_humidity;BME280_pressure;Samples;Min_cycle;Max_cycle;Signal;HPM_P1;HPM_P2
2021/10/28 00:14:01;;;;;;;40.73;11.97;;;;;;;;;;5046702;28;20233;-74
2021/10/28 00:16:30;;;;;;;47.90;11.83;;;;;;;;;;5044496;28;20767;-75
2021/10/28 00:19:03;;;;;;;51.37;13.97;;;;;;;;;;5048659;28;21330;-74
2021/10/28 00:21:31;;;;;;;42.80;11.20;;;;;;;;;;5044929;28;20610;-74
2021/10/28 00:24:01;;;;;;;45.10;11.23;;;;;;;;;;5047124;28;20199;-75
2021/10/28 00:26:29;;;;;;;57.23;11.47;;;;;;;;;;5047673;28;20294;-74
2021/10/28 00:29:00;;;;;;;43.03;12.00;;;;;;;;;;5045822;28;20226;-75
2021/10/28 00:31:28;;;;;;;39.10;10.60;;;;;;;;;;5044785;28;20230;-74
2021/10/28 00:33:56;;;;;;;46.07;12.63;;;;;;;;;;5049381;28;20214;-74
2021/10/28 00:36:24;;;;;;;43.13;11.67;;;;;;;;;;5050053;28;20737;-74
2021/10/28 00:38:52;;;;;;;33.37;11.50;;;;;;;;;;5042644;28;20206;-74
2021/10/28 00:41:19;;;;;;;53.63;12.53;;;;;;;;;;5045350;28;20226;-75
2021/10/28 00:43:48;;;;;;;30.63;10.00;;;;;;;;;;5048995;28;20203;-75
2021/10/28 00:46:16;;;;;;;26.47;8.80;;;;;;;;;;5049881;28;20673;-74
2021/10/28 00:48:44;;;;;;;23.03;9.20;;;;;;;;;;5043716;28;20488;-74
2021/10/28 00:51:11;;;;;;;23.43;9.77;;;;;;;;;;5051647;28;20312;-74
2021/10/28 00:53:40;;;;;;;26.00;10.60;;;;;;;;;;5048497;28;20235;-74
2021/10/28 00:56:07;;;;;;;30.10;10.37;;;;;;;;;;5051134;28;20218;-75
2021/10/28 00:58:35;;;;;;;56.43;11.70;;;;;;;;;;5049649;28;20215;-74
2021/10/28 01:01:02;;;;;;;58.80;10.77;;;;;;;;;;5049751;28;20755;-74
2021/10/28 01:03:30;;;;;;;51.17;10.27;;;;;;;;;;5051160;28;20286;-74
2021/10/28 01:05:57;;;;;;;41.87;11.07;;;;;;;;;;5048598;28;21232;-74
2021/10/28 01:08:26;;;;;;;51.43;10.63;;;;;;;;;;5049051;28;20298;-75
2021/10/28 01:10:56;;;;;;;37.70;10.30;;;;;;;;;;5047147;28;20317;-74
2021/10/28 01:13:24;;;;;;;33.67;9.70;;;;;;;;;;5046985;28;20226;-74
2021/10/28 01:15:51;;;;;;;34.57;9.83;;;;;;;;;;5045492;28;20290;-75
2021/10/28 01:18:18;;;;;;;63.63;12.03;;;;;;;;;;5045015;28;20282;-74
2021/10/28 01:20:48;;;;;;;29.67;9.03;;;;;;;;;;5048540;28;20316;-74
2021/10/28 01:23:16;;;;;;;65.47;11.07;;;;;;;;;;5046803;28;20289;-75
2021/10/28 01:25:52;;;;;;;33.43;9.33;;;;;;;;;;5044528;28;20297;-75
2021/10/28 01:28:20;;;;;;;35.27;8.90;;;;;;;;;;5043430;28;20202;-73
2021/10/28 01:30:48;;;;;;;21.20;8.90;;;;;;;;;;5045137;28;20310;-74
2021/10/28 01:33:16;;;;;;;46.63;10.93;;;;;;;;;;5044651;28;20337;-74
2021/10/28 01:35:43;;;;;;;30.40;9.40;;;;;;;;;;5048850;28;20210;-74
2021/10/28 01:38:13;;;;;;;41.40;9.70;;;;;;;;;;5050092;28;20202;-74
2021/10/28 01:40:40;;;;;;;40.33;9.13;;;;;;;;;;5049751;28;20205;-74
2021/10/28 01:43:08;;;;;;;28.73;9.50;;;;;;;;;;5048850;28;20217;-74
2021/10/28 01:45:35;;;;;;;38.13;10.30;;;;;;;;;;5050422;28;20309;-74
2021/10/28 01:48:02;;;;;;;23.73;9.83;;;;;;;;;;5049411;28;20291;-74
2021/10/28 01:50:30;;;;;;;39.83;9.57;;;;;;;;;;5055804;28;20202;-74
2021/10/28 01:52:59;;;;;;;38.53;9.43;;;;;;;;;;5051255;28;20619;-74
2021/10/28 01:55:27;;;;;;;48.33;10.50;;;;;;;;;;5048075;28;20301;-74
2021/10/28 01:57:54;;;;;;;42.33;10.27;;;;;;;;;;5049983;28;20226;-75
2021/10/28 02:00:23;;;;;;;34.30;10.63;;;;;;;;;;5050720;28;20289;-75
2021/10/28 02:02:50;;;;;;;23.83;9.47;;;;;;;;;;5050135;28;20231;-77
2021/10/28 02:05:18;;;;;;;29.27;9.07;;;;;;;;;;5048052;28;20683;-74
2021/10/28 02:07:46;;;;;;;50.10;9.83;;;;;;;;;;5052150;28;20673;-74
2021/10/28 02:10:14;;;;;;;27.27;10.07;;;;;;;;;;5048839;28;20681;-74
2021/10/28 02:12:42;;;;;;;40.17;9.73;;;;;;;;;;5046223;28;20231;-74
2021/10/28 02:15:12;;;;;;;43.03;9.07;;;;;;;;;;5050586;28;20199;-75
2021/10/28 02:17:39;;;;;;;34.03;8.27;;;;;;;;;;5050490;28;20197;-74
2021/10/28 02:20:08;;;;;;;30.13;9.20;;;;;;;;;;5051290;28;20649;-75
2021/10/28 02:22:35;;;;;;;30.00;8.87;;;;;;;;;;5052021;28;20223;-74
2021/10/28 02:25:02;;;;;;;41.97;8.87;;;;;;;;;;5060322;22;20308;-75
2021/10/28 02:27:29;;;;;;;36.17;9.47;;;;;;;;;;5018322;28;20230;-74
2021/10/28 02:29:58;;;;;;;42.50;9.30;;;;;;;;;;5015288;28;20309;-74
2021/10/28 02:32:25;;;;;;;27.13;9.10;;;;;;;;;;4997730;28;20224;-74
2021/10/28 02:34:52;;;;;;;23.63;7.00;;;;;;;;;;4994433;28;20315;-74
2021/10/28 02:37:20;;;;;;;25.50;8.10;;;;;;;;;;4995404;28;20613;-74
2021/10/28 02:39:48;;;;;;;35.43;10.13;;;;;;;;;;4997304;28;20209;-74
2021/10/28 02:42:16;;;;;;;32.20;9.67;;;;;;;;;;4994895;28;20228;-74
2021/10/28 02:44:43;;;;;;;30.87;8.03;;;;;;;;;;4995233;28;20192;-74
2021/10/28 02:47:12;;;;;;;23.37;7.93;;;;;;;;;;4995185;28;20200;-75
2021/10/28 02:49:39;;;;;;;27.37;8.63;;;;;;;;;;4995640;28;20644;-74
2021/10/28 02:52:07;;;;;;;29.83;8.90;;;;;;;;;;4993136;28;20317;-74
2021/10/28 02:54:34;;;;;;;27.20;8.50;;;;;;;;;;4995055;28;20236;-74
2021/10/28 02:57:02;;;;;;;20.40;7.70;;;;;;;;;;4997737;28;20689;-74
2021/10/28 02:59:29;;;;;;;20.67;7.40;;;;;;;;;;4994590;28;20288;-74
2021/10/28 03:01:56;;;;;;;19.30;7.47;;;;;;;;;;4996621;28;20311;-74
2021/10/28 03:04:25;;;;;;;15.73;7.57;;;;;;;;;;4992748;28;20204;-74
2021/10/28 03:06:53;;;;;;;24.73;8.67;;;;;;;;;;4994255;28;20295;-74
2021/10/28 03:09:21;;;;;;;24.10;8.03;;;;;;;;;;4995338;28;20338;-74
2021/10/28 03:11:50;;;;;;;28.10;8.40;;;;;;;;;;4993508;28;20307;-74
2021/10/28 03:14:18;;;;;;;27.53;8.20;;;;;;;;;;4992131;28;20698;-74
2021/10/28 03:16:52;;;;;;;32.80;8.67;;;;;;;;;;4994813;28;20205;-74
2021/10/28 03:27:32;;;;;;;31.20;8.33;;;;;;;;;;4993922;28;20216;-74
2021/10/28 03:29:59;;;;;;;32.37;7.50;;;;;;;;;;4994315;28;20784;-74
2021/10/28 03:32:28;;;;;;;24.77;8.60;;;;;;;;;;4992552;28;20276;-74
2021/10/28 03:34:55;;;;;;;24.23;7.63;;;;;;;;;;4996110;28;20228;-74
2021/10/28 03:37:27;;;;;;;22.60;8.60;;;;;;;;;;4995091;28;20292;-74
2021/10/28 03:45:47;;;;;;;24.87;8.73;;;;;;;;;;4993556;28;20679;-74
2021/10/28 03:48:35;;;;;;;22.27;8.33;;;;;;;;;;4993168;28;20600;-74
2021/10/28 04:08:00;;;;;;;18.83;8.07;;;;;;;;;;4994404;28;20690;-75
2021/10/28 04:19:02;;;;;;;27.67;8.73;;;;;;;;;;4993534;28;20199;-75
2021/10/28 04:29:50;;;;;;;23.47;9.07;;;;;;;;;;4975819;28;20592;-75
2021/10/28 04:32:17;;;;;;;24.50;9.17;;;;;;;;;;4993007;28;20246;-75
2021/10/28 04:34:45;;;;;;;24.10;9.57;;;;;;;;;;4993835;28;20318;-75
2021/10/28 04:37:12;;;;;;;27.97;8.80;;;;;;;;;;4992153;28;20208;-75
2021/10/28 04:39:39;;;;;;;24.20;9.37;;;;;;;;;;4992914;28;20296;-75
2021/10/28 04:42:08;;;;;;;26.83;8.93;;;;;;;;;;4992279;28;20340;-77
2021/10/28 04:44:35;;;;;;;26.33;9.00;;;;;;;;;;4992966;28;20324;-75
2021/10/28 04:47:02;;;;;;;27.60;9.30;;;;;;;;;;4994895;28;20624;-78
2021/10/28 04:49:30;;;;;;;30.20;9.33;;;;;;;;;;4995991;28;20209;-75
2021/10/28 04:51:57;;;;;;;27.17;9.97;;;;;;;;;;4994084;28;20224;-76
2021/10/28 04:54:24;;;;;;;23.50;9.37;;;;;;;;;;4991428;28;20252;-75
2021/10/28 04:56:51;;;;;;;25.07;8.83;;;;;;;;;;4996494;28;20738;-75
2021/10/28 04:59:20;;;;;;;20.07;8.27;;;;;;;;;;4994588;28;20773;-75
2021/10/28 05:01:47;;;;;;;19.17;8.27;;;;;;;;;;4992762;28;20223;-75
2021/10/28 05:04:14;;;;;;;20.67;8.50;;;;;;;;;;4998309;28;20238;-75
2021/10/28 05:06:43;;;;;;;19.47;8.20;;;;;;;;;;4993414;28;20304;-75
2021/10/28 05:09:11;;;;;;;23.50;8.87;;;;;;;;;;4994586;28;20209;-75
2021/10/28 05:11:39;;;;;;;20.40;7.93;;;;;;;;;;4990856;28;20233;-75
2021/10/28 05:14:06;;;;;;;19.87;8.70;;;;;;;;;;4998122;28;20225;-75
2021/10/28 05:16:34;;;;;;;21.07;8.17;;;;;;;;;;4993086;28;20316;-75
2021/10/28 05:19:02;;;;;;;22.93;8.63;;;;;;;;;;4992924;28;20216;-75
2021/10/28 05:21:29;;;;;;;21.30;8.57;;;;;;;;;;4992076;28;20228;-75
2021/10/28 05:23:57;;;;;;;19.83;7.83;;;;;;;;;;4995579;28;20279;-75
2021/10/28 05:26:24;;;;;;;23.90;8.10;;;;;;;;;;4994798;28;20231;-77
2021/10/28 05:28:51;;;;;;;20.40;8.07;;;;;;;;;;4998078;28;20239;-74
2021/10/28 05:31:21;;;;;;;19.40;8.17;;;;;;;;;;4997763;28;20227;-75
2021/10/28 05:33:49;;;;;;;23.10;8.10;;;;;;;;;;4998514;28;20220;-76
2021/10/28 05:36:17;;;;;;;23.77;9.03;;;;;;;;;;4992067;28;20663;-76
2021/10/28 05:38:44;;;;;;;28.10;9.43;;;;;;;;;;4995072;28;20200;-74
2021/10/28 05:41:11;;;;;;;25.33;9.53;;;;;;;;;;4997269;28;20220;-75
2021/10/28 05:43:38;;;;;;;25.07;9.17;;;;;;;;;;4994039;28;20211;-74
2021/10/28 05:46:05;;;;;;;30.73;10.27;;;;;;;;;;4990744;28;20287;-76
2021/10/28 05:48:33;;;;;;;29.67;9.77;;;;;;;;;;4992190;28;20291;-76
2021/10/28 05:51:01;;;;;;;31.20;10.37;;;;;;;;;;4992473;28;20255;-76
2021/10/28 05:53:29;;;;;;;31.40;10.47;;;;;;;;;;4992403;28;20627;-75
2021/10/28 05:55:56;;;;;;;28.23;10.07;;;;;;;;;;4998218;28;20287;-75
2021/10/28 05:58:23;;;;;;;34.50;10.60;;;;;;;;;;5002317;28;20666;-76
2021/10/28 06:00:51;;;;;;;31.83;9.60;;;;;;;;;;5000650;28;20237;-74
2021/10/28 06:03:18;;;;;;;34.73;10.43;;;;;;;;;;4999178;28;20652;-76
2021/10/28 06:05:45;;;;;;;37.57;11.10;;;;;;;;;;5000218;28;20296;-75
2021/10/28 06:08:13;;;;;;;30.00;9.50;;;;;;;;;;4994378;28;20220;-75
2021/10/28 06:10:41;;;;;;;34.07;10.50;;;;;;;;;;4994300;28;20239;-74
2021/10/28 06:13:08;;;;;;;52.13;10.43;;;;;;;;;;4990240;28;20291;-75
2021/10/28 06:15:36;;;;;;;34.87;10.57;;;;;;;;;;4995219;28;20223;-75
2021/10/28 06:18:23;;;;;;;38.63;11.37;;;;;;;;;;4996034;28;20205;-75
2021/10/28 06:20:53;;;;;;;32.40;11.10;;;;;;;;;;4997447;28;20557;-75
2021/10/28 06:23:21;;;;;;;35.03;11.07;;;;;;;;;;4997514;28;20616;-76
2021/10/28 06:25:49;;;;;;;32.00;11.37;;;;;;;;;;5000775;28;20208;-74
2021/10/28 06:28:16;;;;;;;33.07;11.10;;;;;;;;;;5000828;28;20228;-75
2021/10/28 06:30:43;;;;;;;34.37;11.37;;;;;;;;;;4995120;28;20232;-73
2021/10/28 06:33:16;;;;;;;34.17;11.77;;;;;;;;;;4996200;28;20573;-74
2021/10/28 06:35:43;;;;;;;40.73;12.77;;;;;;;;;;4988669;28;20232;-74
2021/10/28 06:38:11;;;;;;;38.57;13.07;;;;;;;;;;4997061;28;20239;-74
2021/10/28 06:40:40;;;;;;;41.23;13.20;;;;;;;;;;4991362;28;20200;-74
2021/10/28 06:43:08;;;;;;;46.33;13.17;;;;;;;;;;4996090;28;20221;-74
2021/10/28 06:45:35;;;;;;;45.00;14.70;;;;;;;;;;4994720;28;20292;-74
2021/10/28 06:48:02;;;;;;;44.97;13.93;;;;;;;;;;4995206;28;20205;-75
2021/10/28 06:50:34;;;;;;;49.80;14.43;;;;;;;;;;4994672;28;20304;-73
2021/10/28 06:53:09;;;;;;;38.37;13.67;;;;;;;;;;4995446;28;20220;-75
2021/10/28 06:55:42;;;;;;;44.10;14.77;;;;;;;;;;4997972;28;20334;-75
2021/10/28 07:03:40;;;;;;;56.17;14.53;;;;;;;;;;4993315;28;20244;-74
2021/10/28 07:06:10;;;;;;;53.47;14.37;;;;;;;;;;4993738;28;20212;-74
2021/10/28 07:08:40;;;;;;;48.03;14.70;;;;;;;;;;4994006;28;20216;-74
2021/10/28 07:11:10;;;;;;;54.27;15.43;;;;;;;;;;4993949;28;20905;-76
2021/10/28 07:13:42;;;;;;;47.13;14.63;;;;;;;;;;4995188;28;20649;-74
2021/10/28 07:19:02;;;;;;;53.47;16.93;;;;;;;;;;4993428;28;20204;-74
2021/10/28 07:33:04;;;;;;;50.77;17.03;;;;;;;;;;4996485;28;20226;-73
2021/10/28 07:35:51;;;;;;;51.30;16.70;;;;;;;;;;4992997;28;20229;-73
2021/10/28 08:06:27;;;;;;;46.43;16.27;;;;;;;;;;4991295;28;20215;-73
2021/10/28 08:14:44;;;;;;;45.43;16.47;;;;;;;;;;4995909;28;20251;-76
2021/10/28 08:17:41;;;;;;;48.80;16.27;;;;;;;;;;4994823;28;20213;-75
2021/10/28 08:20:16;;;;;;;43.57;15.43;;;;;;;;;;4994778;28;20201;-75
2021/10/28 08:22:48;;;;;;;42.50;15.77;;;;;;;;;;4993102;28;20227;-73
2021/10/28 08:30:42;;;;;;;38.33;14.40;;;;;;;;;;4992948;28;21020;-73
2021/10/28 08:33:09;;;;;;;39.27;14.60;;;;;;;;;;4996333;28;20197;-73
2021/10/28 08:35:38;;;;;;;43.33;15.10;;;;;;;;;;4991812;28;20244;-72
2021/10/28 08:38:06;;;;;;;38.17;15.30;;;;;;;;;;4992214;28;20212;-72
2021/10/28 08:40:34;;;;;;;38.47;15.10;;;;;;;;;;4993368;28;20256;-73
2021/10/28 08:43:03;;;;;;;45.73;14.73;;;;;;;;;;4993746;28;20205;-73
2021/10/28 08:45:34;;;;;;;42.10;14.87;;;;;;;;;;4990900;28;20197;-72
2021/10/28 08:48:03;;;;;;;36.53;14.83;;;;;;;;;;4993047;28;20240;-73
2021/10/28 08:50:36;;;;;;;37.53;14.90;;;;;;;;;;4995156;28;20282;-73
2021/10/28 08:53:17;;;;;;;37.67;14.30;;;;;;;;;;4993922;28;20564;-73
2021/10/28 08:55:49;;;;;;;31.93;12.80;;;;;;;;;;4991514;28;20337;-73
2021/10/28 08:58:36;;;;;;;31.47;13.83;;;;;;;;;;4990717;28;20770;-73
2021/10/28 09:26:20;;;;;;;25.77;12.03;;;;;;;;;;4994263;28;20220;-73
2021/10/28 09:28:55;;;;;;;30.20;12.83;;;;;;;;;;4995979;28;20303;-73
2021/10/28 09:31:24;;;;;;;26.70;12.00;;;;;;;;;;4994994;28;20318;-73
2021/10/28 09:34:02;;;;;;;26.47;12.13;;;;;;;;;;4995241;28;20205;-73
2021/10/28 09:45:17;;;;;;;23.83;11.47;;;;;;;;;;4991582;28;20215;-73
2021/10/28 09:47:51;;;;;;;26.90;11.77;;;;;;;;;;4990808;28;20209;-74
2021/10/28 09:50:23;;;;;;;22.27;12.00;;;;;;;;;;4991891;28;20299;-75
2021/10/28 09:53:08;;;;;;;26.77;11.83;;;;;;;;;;4995811;28;20201;-74
2021/10/28 09:58:31;;;;;;;25.33;11.10;;;;;;;;;;4992425;28;20204;-74
2021/10/28 10:00:58;;;;;;;21.17;11.03;;;;;;;;;;4993422;28;20234;-75
2021/10/28 10:03:29;;;;;;;22.40;12.00;;;;;;;;;;4993502;28;20801;-75
2021/10/28 10:06:00;;;;;;;23.87;11.53;;;;;;;;;;4998822;28;20233;-76
2021/10/28 10:08:27;;;;;;;22.63;11.37;;;;;;;;;;4998861;28;20219;-74
2021/10/28 10:10:54;;;;;;;27.03;12.53;;;;;;;;;;4998506;28;20748;-75
2021/10/28 10:13:23;;;;;;;24.83;12.70;;;;;;;;;;4998421;28;20315;-75
2021/10/28 10:15:53;;;;;;;20.30;10.73;;;;;;;;;;4994099;28;20220;-74
2021/10/28 10:18:23;;;;;;;24.17;12.53;;;;;;;;;;4998379;28;20202;-74
2021/10/28 10:20:53;;;;;;;27.50;12.53;;;;;;;;;;4997770;28;20699;-74
2021/10/28 10:23:32;;;;;;;25.13;13.53;;;;;;;;;;4997896;28;20230;-75
2021/10/28 10:26:12;;;;;;;26.33;13.20;;;;;;;;;;4995478;28;20239;-74
2021/10/28 11:19:20;;;;;;;26.57;12.63;;;;;;;;;;4997169;28;20220;-75
2021/10/28 11:22:15;;;;;;;29.37;13.83;;;;;;;;;;4987230;28;20228;-76
2021/10/28 11:30:47;;;;;;;27.90;13.03;;;;;;;;;;5000588;28;20275;-73
2021/10/28 12:21:28;;;;;;;17.70;10.13;;;;;;;;;;4960898;28;20206;-75
2021/10/28 13:48:25;;;;;;;44.03;20.07;;;;;;;;;;5135150;27;20580;-76
2021/10/28 13:53:52;;;;;;;45.33;20.87;;;;;;;;;;5133274;27;20649;-76
2021/10/28 13:59:26;;;;;;;44.67;20.00;;;;;;;;;;5135071;27;20280;-76
2021/10/28 14:21:45;;;;;;;49.87;22.07;;;;;;;;;;5121671;27;20219;-76
2021/10/28 15:03:19;;;;;;;57.73;23.73;;;;;;;;;;5033324;28;20204;-75
2021/10/28 15:27:57;;;;;;;58.53;23.73;;;;;;;;;;5032767;28;20585;-76
2021/10/28 15:30:33;;;;;;;56.90;22.77;;;;;;;;;;5031541;28;20203;-76
2021/10/28 15:35:43;;;;;;;52.10;22.07;;;;;;;;;;5032414;28;20206;-75
2021/10/28 15:58:23;;;;;;;51.60;22.30;;;;;;;;;;5032589;28;20195;-75
2021/10/28 16:22:50;;;;;;;71.90;25.40;;;;;;;;;;5032768;28;20257;-75
2021/10/28 16:25:17;;;;;;;68.00;26.30;;;;;;;;;;5032643;28;20298;-75
2021/10/28 16:27:46;;;;;;;74.83;26.60;;;;;;;;;;5032616;28;20771;-76
2021/10/28 16:30:13;;;;;;;70.07;26.33;;;;;;;;;;5033270;28;20223;-75
2021/10/28 16:32:40;;;;;;;65.90;26.47;;;;;;;;;;5033796;28;20227;-76
2021/10/28 16:35:08;;;;;;;62.30;25.57;;;;;;;;;;5035635;28;20329;-75
2021/10/28 16:37:35;;;;;;;73.90;26.40;;;;;;;;;;5033849;28;20667;-75
2021/10/28 16:40:03;;;;;;;73.57;27.43;;;;;;;;;;5033793;28;20668;-75
2021/10/28 16:42:30;;;;;;;74.23;27.60;;;;;;;;;;5037010;28;20686;-75
2021/10/28 16:44:59;;;;;;;71.23;26.57;;;;;;;;;;5027731;28;20214;-75
2021/10/28 16:47:27;;;;;;;86.17;32.70;;;;;;;;;;5033501;28;20235;-76
2021/10/28 16:49:55;;;;;;;82.57;31.43;;;;;;;;;;5030814;28;20203;-75
2021/10/28 16:52:22;;;;;;;78.07;30.10;;;;;;;;;;5032000;28;20226;-75
2021/10/28 16:54:49;;;;;;;71.03;27.53;;;;;;;;;;5035480;28;20258;-75
2021/10/28 16:57:16;;;;;;;85.67;29.03;;;;;;;;;;5034547;28;20231;-76
2021/10/28 16:59:43;;;;;;;82.90;29.27;;;;;;;;;;5032709;28;20628;-76
2021/10/28 17:02:12;;;;;;;77.00;29.20;;;;;;;;;;5034864;28;20305;-75
2021/10/28 17:04:39;;;;;;;71.00;26.30;;;;;;;;;;5036483;28;20196;-76
2021/10/28 17:07:06;;;;;;;81.80;30.40;;;;;;;;;;5032472;28;20230;-75
2021/10/28 17:09:34;;;;;;;78.43;29.07;;;;;;;;;;5034995;28;20306;-75
2021/10/28 17:12:01;;;;;;;80.97;29.17;;;;;;;;;;5029543;28;20740;-75
2021/10/28 17:14:28;;;;;;;78.97;28.87;;;;;;;;;;5030892;28;20646;-75
2021/10/28 17:16:55;;;;;;;88.27;30.83;;;;;;;;;;5036077;28;20230;-75
2021/10/28 17:19:24;;;;;;;80.03;28.87;;;;;;;;;;5032176;28;20203;-75
2021/10/28 17:21:52;;;;;;;78.00;28.47;;;;;;;;;;5031531;28;20220;-76
2021/10/28 17:24:27;;;;;;;73.57;28.47;;;;;;;;;;5033431;28;20211;-76
2021/10/28 17:26:54;;;;;;;80.17;30.13;;;;;;;;;;5036536;28;20671;-74
2021/10/28 17:29:21;;;;;;;76.20;27.80;;;;;;;;;;5038769;28;20211;-76
2021/10/28 17:31:51;;;;;;;82.40;28.80;;;;;;;;;;5031077;28;20232;-75
2021/10/28 17:34:19;;;;;;;74.60;28.00;;;;;;;;;;5033910;28;20641;-75
2021/10/28 17:36:52;;;;;;;79.40;29.03;;;;;;;;;;5033468;28;20341;-75
2021/10/28 17:39:20;;;;;;;85.43;29.10;;;;;;;;;;5034957;28;20226;-74
2021/10/28 17:41:47;;;;;;;78.33;29.47;;;;;;;;;;5035435;28;20620;-75
2021/10/28 17:44:14;;;;;;;81.37;28.27;;;;;;;;;;5035595;28;20290;-75
2021/10/28 17:46:42;;;;;;;77.43;27.17;;;;;;;;;;5037878;28;20711;-76
2021/10/28 17:49:09;;;;;;;80.37;28.87;;;;;;;;;;5037550;28;20640;-75
2021/10/28 17:51:38;;;;;;;76.63;28.03;;;;;;;;;;5032858;28;20315;-75
2021/10/28 17:54:10;;;;;;;74.90;28.33;;;;;;;;;;5031896;28;20281;-74
2021/10/28 17:56:37;;;;;;;76.50;27.40;;;;;;;;;;5033094;28;20646;-74
2021/10/28 17:59:05;;;;;;;80.77;28.73;;;;;;;;;;5034356;28;20211;-75
2021/10/28 18:01:32;;;;;;;73.73;27.93;;;;;;;;;;5035159;28;20227;-74
2021/10/28 18:04:00;;;;;;;73.17;27.40;;;;;;;;;;5037132;28;20234;-75
2021/10/28 18:06:29;;;;;;;71.47;27.30;;;;;;;;;;5032849;28;20200;-76
2021/10/28 18:08:57;;;;;;;84.20;29.37;;;;;;;;;;5038860;28;20662;-77
2021/10/28 18:11:26;;;;;;;72.17;27.60;;;;;;;;;;5038275;28;20230;-75
2021/10/28 18:13:56;;;;;;;71.30;26.73;;;;;;;;;;5039690;28;20199;-75
2021/10/28 18:16:25;;;;;;;69.53;27.10;;;;;;;;;;5035873;28;20204;-76
2021/10/28 18:18:52;;;;;;;75.63;28.40;;;;;;;;;;5039900;28;20656;-76
2021/10/28 18:21:19;;;;;;;70.57;27.00;;;;;;;;;;5036498;28;20286;-74
2021/10/28 18:23:49;;;;;;;73.30;26.60;;;;;;;;;;5034790;28;20235;-75
2021/10/28 18:26:17;;;;;;;78.10;28.70;;;;;;;;;;5035278;28;20659;-75
2021/10/28 18:28:45;;;;;;;70.43;27.03;;;;;;;;;;5034831;28;20306;-75
2021/10/28 18:31:13;;;;;;;79.73;26.87;;;;;;;;;;5037248;28;20215;-74
2021/10/28 18:33:41;;;;;;;69.97;26.50;;;;;;;;;;5035702;28;20309;-75
2021/10/28 18:36:09;;;;;;;75.30;27.23;;;;;;;;;;5036041;28;20226;-75
2021/10/28 18:38:37;;;;;;;70.73;27.43;;;;;;;;;;5039378;28;20231;-76
2021/10/28 18:41:07;;;;;;;71.83;27.97;;;;;;;;;;5042018;28;20250;-75
2021/10/28 18:43:34;;;;;;;68.03;26.10;;;;;;;;;;5034303;28;20211;-76
2021/10/28 18:46:02;;;;;;;66.27;25.10;;;;;;;;;;5033796;28;20211;-75
2021/10/28 18:48:30;;;;;;;70.67;26.50;;;;;;;;;;5040657;28;20303;-76
2021/10/28 18:50:58;;;;;;;71.27;25.97;;;;;;;;;;5038602;28;20230;-76
2021/10/28 18:53:26;;;;;;;66.03;25.77;;;;;;;;;;5040277;28;20227;-76
2021/10/28 18:55:53;;;;;;;64.40;25.07;;;;;;;;;;5037677;28;20239;-75
2021/10/28 18:58:20;;;;;;;57.83;24.50;;;;;;;;;;5034890;28;20238;-76
2021/10/28 19:00:49;;;;;;;73.93;25.80;;;;;;;;;;5034134;28;20514;-75
2021/10/28 19:03:18;;;;;;;61.77;26.20;;;;;;;;;;5038589;28;20218;-76
2021/10/28 19:05:45;;;;;;;70.37;27.37;;;;;;;;;;5034829;28;20217;-75
2021/10/28 19:08:13;;;;;;;72.47;26.90;;;;;;;;;;5038587;28;20622;-76
2021/10/28 19:10:40;;;;;;;65.93;25.57;;;;;;;;;;5037248;28;20238;-75
2021/10/28 19:13:07;;;;;;;65.10;25.03;;;;;;;;;;5032946;28;20309;-74
2021/10/28 19:15:35;;;;;;;68.13;26.23;;;;;;;;;;5040025;28;20295;-76
2021/10/28 19:18:02;;;;;;;60.47;24.00;;;;;;;;;;5038958;28;20266;-75
2021/10/28 19:20:31;;;;;;;70.90;25.57;;;;;;;;;;5041298;28;20203;-76
2021/10/28 19:22:58;;;;;;;72.77;25.57;;;;;;;;;;5037476;28;20299;-76
2021/10/28 19:25:26;;;;;;;71.27;25.23;;;;;;;;;;5038286;28;20203;-76
2021/10/28 19:27:54;;;;;;;64.57;24.50;;;;;;;;;;5036428;28;21100;-76
2021/10/28 19:30:29;;;;;;;72.23;24.40;;;;;;;;;;5035499;28;20237;-74
2021/10/28 19:33:00;;;;;;;71.03;26.00;;;;;;;;;;5035216;28;20311;-76
2021/10/28 19:35:28;;;;;;;66.77;25.03;;;;;;;;;;5034510;28;20282;-75
2021/10/28 19:38:03;;;;;;;65.47;25.37;;;;;;;;;;5037263;28;20759;-75
2021/10/28 19:48:47;;;;;;;67.40;24.53;;;;;;;;;;5034376;28;20200;-74
2021/10/28 19:51:15;;;;;;;66.43;24.63;;;;;;;;;;5035828;28;20304;-74
2021/10/28 19:53:45;;;;;;;73.43;25.77;;;;;;;;;;5039275;28;20250;-75
2021/10/28 19:56:14;;;;;;;65.67;25.33;;;;;;;;;;5034455;28;20254;-75
2021/10/28 19:58:43;;;;;;;72.83;26.30;;;;;;;;;;5034126;28;20269;-75
2021/10/28 20:01:20;;;;;;;65.00;24.03;;;;;;;;;;5035272;28;20721;-77
2021/10/28 20:04:09;;;;;;;79.80;26.13;;;;;;;;;;5035084;28;20206;-74
2021/10/28 20:15:15;;;;;;;83.57;25.93;;;;;;;;;;5034299;28;20328;-76
2021/10/28 20:20:38;;;;;;;76.77;25.33;;;;;;;;;;5035719;28;20735;-76
2021/10/28 20:23:05;;;;;;;77.10;24.90;;;;;;;;;;5033238;28;20207;-76
2021/10/28 20:25:34;;;;;;;75.60;25.37;;;;;;;;;;5035859;28;20701;-77
2021/10/28 20:28:04;;;;;;;79.03;25.77;;;;;;;;;;5036230;28;20623;-77
2021/10/28 20:30:33;;;;;;;72.53;24.47;;;;;;;;;;5039072;28;20312;-79
2021/10/28 20:33:01;;;;;;;74.30;24.90;;;;;;;;;;5036954;28;20724;-77
2021/10/28 20:35:41;;;;;;;75.63;24.93;;;;;;;;;;5042731;28;20272;-80
2021/10/28 20:38:08;;;;;;;75.30;25.03;;;;;;;;;;5043771;28;20227;-78
2021/10/28 20:40:36;;;;;;;72.90;24.73;;;;;;;;;;5049478;28;20258;-79
2021/10/28 20:43:04;;;;;;;68.83;23.60;;;;;;;;;;5042394;28;20302;-77
2021/10/28 20:45:31;;;;;;;68.37;23.17;;;;;;;;;;5041394;28;20286;-78
2021/10/28 20:47:58;;;;;;;74.67;24.33;;;;;;;;;;5036872;28;20230;-77
2021/10/28 20:50:27;;;;;;;71.83;24.13;;;;;;;;;;5037213;28;20287;-77
2021/10/28 20:52:54;;;;;;;71.77;25.53;;;;;;;;;;5026857;28;20227;-76
2021/10/28 20:55:21;;;;;;;76.70;25.00;;;;;;;;;;5035300;28;20665;-76
2021/10/28 20:57:51;;;;;;;81.67;24.70;;;;;;;;;;5043410;28;20243;-77
2021/10/28 21:00:20;;;;;;;78.03;24.80;;;;;;;;;;5037307;28;20272;-77
2021/10/28 21:02:47;;;;;;;78.67;25.37;;;;;;;;;;5037852;28;20317;-77
2021/10/28 21:05:18;;;;;;;69.00;23.73;;;;;;;;;;5041325;28;20286;-77
2021/10/28 21:07:46;;;;;;;80.13;24.30;;;;;;;;;;5043969;28;20230;-77
2021/10/28 21:10:15;;;;;;;82.40;24.80;;;;;;;;;;5044375;28;20294;-77
2021/10/28 21:12:42;;;;;;;74.23;24.37;;;;;;;;;;5038434;28;20252;-76
2021/10/28 21:15:12;;;;;;;75.83;24.50;;;;;;;;;;5044919;28;20239;-77
2021/10/28 21:17:39;;;;;;;72.83;24.60;;;;;;;;;;5039405;28;20691;-77
2021/10/28 21:20:08;;;;;;;80.37;24.63;;;;;;;;;;5042227;28;20283;-76
2021/10/28 21:22:35;;;;;;;80.07;24.50;;;;;;;;;;5039690;28;20270;-77
2021/10/28 21:25:02;;;;;;;74.43;23.87;;;;;;;;;;5041578;28;20257;-76
2021/10/28 21:27:30;;;;;;;74.90;25.17;;;;;;;;;;5040774;28;20264;-78
2021/10/28 21:29:57;;;;;;;72.37;24.20;;;;;;;;;;5042365;28;20305;-78
2021/10/28 21:32:25;;;;;;;75.87;24.43;;;;;;;;;;5042345;28;20927;-77
2021/10/28 21:34:52;;;;;;;78.80;24.37;;;;;;;;;;5040846;28;21723;-79
2021/10/28 21:37:20;;;;;;;77.03;24.57;;;;;;;;;;5042911;28;20295;-77
2021/10/28 21:39:49;;;;;;;68.07;22.87;;;;;;;;;;5043632;28;20199;-77
2021/10/28 21:42:16;;;;;;;71.10;23.63;;;;;;;;;;5042186;28;20234;-77
2021/10/28 21:44:44;;;;;;;67.47;22.37;;;;;;;;;;5040294;28;20199;-78
2021/10/28 21:47:11;;;;;;;66.67;21.97;;;;;;;;;;5038252;28;20214;-77
2021/10/28 21:49:40;;;;;;;73.50;23.77;;;;;;;;;;5041749;28;20214;-78
2021/10/28 21:52:15;;;;;;;73.23;23.70;;;;;;;;;;5037138;28;20223;-75
2021/10/28 21:54:45;;;;;;;74.77;23.37;;;;;;;;;;5041868;28;20230;-77
2021/10/28 21:57:21;;;;;;;86.33;25.77;;;;;;;;;;5044180;28;20239;-77
2021/10/28 22:00:01;;;;;;;84.53;25.53;;;;;;;;;;5041148;28;20559;-77
2021/10/28 22:02:53;;;;;;;69.37;21.57;;;;;;;;;;5037776;28;20257;-77
2021/10/28 22:24:51;;;;;;;88.07;25.30;;;;;;;;;;5042216;28;20276;-78
2021/10/28 22:27:18;;;;;;;93.70;27.57;;;;;;;;;;5039473;28;20211;-77
2021/10/28 22:29:46;;;;;;;89.30;25.33;;;;;;;;;;5035459;28;20665;-78
2021/10/28 22:32:14;;;;;;;97.77;27.87;;;;;;;;;;5039899;28;20317;-77
2021/10/28 22:34:43;;;;;;;99.23;25.43;;;;;;;;;;5039632;28;20219;-78
2021/10/28 22:37:21;;;;;;;85.17;24.27;;;;;;;;;;5039704;28;20550;-77
2021/10/28 22:39:53;;;;;;;71.47;22.63;;;;;;;;;;5040932;28;20208;-77
2021/10/28 22:42:20;;;;;;;85.67;24.10;;;;;;;;;;5038553;28;20237;-78
2021/10/28 22:44:48;;;;;;;89.83;24.60;;;;;;;;;;5040271;28;20744;-76
2021/10/28 22:47:15;;;;;;;82.30;24.33;;;;;;;;;;5042107;28;20680;-78
2021/10/28 22:49:42;;;;;;;82.47;24.93;;;;;;;;;;5038248;28;20211;-76
2021/10/28 22:52:13;;;;;;;79.27;25.50;;;;;;;;;;5042772;28;20782;-76
2021/10/28 22:54:43;;;;;;;90.13;23.30;;;;;;;;;;5042786;28;20309;-77
2021/10/28 22:57:13;;;;;;;84.33;25.23;;;;;;;;;;5040681;28;20199;-77
2021/10/28 22:59:42;;;;;;;94.60;26.43;;;;;;;;;;5041547;28;20235;-77
2021/10/28 23:02:20;;;;;;;103.47;26.67;;;;;;;;;;5037931;28;20585;-79
2021/10/28 23:08:06;;;;;;;102.47;29.23;;;;;;;;;;5019276;28;20310;-74
2021/10/28 23:16:37;;;;;;;98.43;26.57;;;;;;;;;;5035043;28;20200;-76
2021/10/28 23:21:51;;;;;;;102.23;28.97;;;;;;;;;;5034889;28;20692;-74